sensor_id;sensor_type;location;lat;lon;timestamp;P1;durP1;ratioP1;P2;durP2;ratioP2
8556;SDS011;4316;53.840;10.762;2022-09-30T00:01:44;3.13;;;2.93;;
8556;SDS011;4316;53.840;10.762;2022-09-30T00:04:14;3.47;;;3.17;;
8556;SDS011;4316;53.840;10.762;2022-09-30T00:06:42;3.80;;;2.90;;
8556;SDS011;4316;53.840;10.762;2022-09-30T00:09:09;3.70;;;3.47;;
8556;SDS011;4316;53.840;10.762;2022-09-30T00:11:37;3.50;;;3.20;;
8556;SDS011;4316;53.840;10.762;2022-09-30T00:14:05;4.03;;;3.27;;
8556;SDS011;4316;53.840;10.762;2022-09-30T00:16:36;3.07;;;2.87;;
8556;SDS011;4316;53.840;10.762;2022-09-30T00:19:02;4.90;;;3.00;;
8556;SDS011;4316;53.840;10.762;2022-09-30T00:21:29;12.37;;;3.37;;
8556;SDS011;4316;53.840;10.762;2022-09-30T00:23:58;3.67;;;3.37;;
8556;SDS011;4316;53.840;10.762;2022-09-30T00:26:24;6.13;;;3.00;;
8556;SDS011;4316;53.840;10.762;2022-09-30T00:28:51;5.23;;;3.30;;
8556;SDS011;4316;53.840;10.762;2022-09-30T00:31:23;3.80;;;3.50;;
8556;SDS011;4316;53.840;10.762;2022-09-30T00:33:50;3.73;;;3.23;;
8556;SDS011;4316;53.840;10.762;2022-09-30T00:36:34;9.93;;;3.87;;
8556;SDS011;4316;53.840;10.762;2022-09-30T00:39:00;7.83;;;4.37;;
8556;SDS011;4316;53.840;10.762;2022-09-30T00:41:27;4.83;;;3.60;;
8556;SDS011;4316;53.840;10.762;2022-09-30T00:43:53;4.77;;;3.30;;
8556;SDS011;4316;53.840;10.762;2022-09-30T00:46:26;4.17;;;3.80;;
8556;SDS011;4316;53.840;10.762;2022-09-30T00:49:04;4.33;;;3.93;;
8556;SDS011;4316;53.840;10.762;2022-09-30T00:51:39;4.03;;;3.73;;
8556;SDS011;4316;53.840;10.762;2022-09-30T00:54:18;5.37;;;4.20;;
8556;SDS011;4316;53.840;10.762;2022-09-30T00:56:54;4.30;;;3.90;;
8556;SDS011;4316;53.840;10.762;2022-09-30T00:59:26;8.63;;;4.57;;
8556;SDS011;4316;53.840;10.762;2022-09-30T01:01:57;6.20;;;4.50;;
8556;SDS011;4316;53.840;10.762;2022-09-30T01:04:24;6.00;;;4.33;;
8556;SDS011;4316;53.840;10.762;2022-09-30T01:06:51;5.47;;;4.80;;
8556;SDS011;4316;53.840;10.762;2022-09-30T01:09:18;5.27;;;4.80;;
8556;SDS011;4316;53.840;10.762;2022-09-30T01:11:44;6.10;;;4.83;;
8556;SDS011;4316;53.840;10.762;2022-09-30T01:14:12;5.30;;;4.80;;
8556;SDS011;4316;53.840;10.762;2022-09-30T01:16:49;5.20;;;4.60;;
8556;SDS011;4316;53.840;10.762;2022-09-30T01:37:16;4.30;;;3.90;;
8556;SDS011;4316;53.840;10.762;2022-09-30T01:42:41;4.43;;;4.13;;
8556;SDS011;4316;53.840;10.762;2022-09-30T01:45:33;4.30;;;3.90;;
8556;SDS011;4316;53.840;10.762;2022-09-30T01:51:06;4.43;;;4.10;;
8556;SDS011;4316;53.840;10.762;2022-09-30T01:56:27;7.83;;;4.13;;
8556;SDS011;4316;53.840;10.762;2022-09-30T01:59:09;4.60;;;4.23;;
8556;SDS011;4316;53.840;10.762;2022-09-30T02:01:56;5.10;;;4.43;;
8556;SDS011;4316;53.840;10.762;2022-09-30T02:04:34;5.43;;;4.90;;
8556;SDS011;4316;53.840;10.762;2022-09-30T02:07:14;7.80;;;4.53;;
8556;SDS011;4316;53.840;10.762;2022-09-30T02:10:02;4.97;;;4.57;;
8556;SDS011;4316;53.840;10.762;2022-09-30T02:12:40;4.97;;;4.43;;
8556;SDS011;4316;53.840;10.762;2022-09-30T02:15:12;6.10;;;4.40;;
8556;SDS011;4316;53.840;10.762;2022-09-30T02:17:52;5.23;;;4.83;;
8556;SDS011;4316;53.840;10.762;2022-09-30T02:20:30;5.27;;;4.43;;
8556;SDS011;4316;53.840;10.762;2022-09-30T02:23:10;6.60;;;5.27;;
8556;SDS011;4316;53.840;10.762;2022-09-30T02:25:44;5.10;;;4.60;;
8556;SDS011;4316;53.840;10.762;2022-09-30T02:28:16;5.80;;;4.90;;
8556;SDS011;4316;53.840;10.762;2022-09-30T02:30:48;6.50;;;5.47;;
8556;SDS011;4316;53.840;10.762;2022-09-30T02:33:31;5.73;;;5.17;;
8556;SDS011;4316;53.840;10.762;2022-09-30T02:36:00;11.20;;;5.60;;
8556;SDS011;4316;53.840;10.762;2022-09-30T02:38:44;6.57;;;5.23;;
8556;SDS011;4316;53.840;10.762;2022-09-30T02:41:17;7.83;;;4.77;;
8556;SDS011;4316;53.840;10.762;2022-09-30T02:43:50;5.10;;;4.60;;
8556;SDS011;4316;53.840;10.762;2022-09-30T02:46:33;5.60;;;5.10;;
8556;SDS011;4316;53.840;10.762;2022-09-30T02:52:19;4.87;;;4.47;;
8556;SDS011;4316;53.840;10.762;2022-09-30T02:57:40;5.07;;;4.67;;
8556;SDS011;4316;53.840;10.762;2022-09-30T03:00:20;5.87;;;4.30;;
8556;SDS011;4316;53.840;10.762;2022-09-30T03:02:48;8.23;;;5.90;;
8556;SDS011;4316;53.840;10.762;2022-09-30T03:05:18;4.90;;;4.40;;
8556;SDS011;4316;53.840;10.762;2022-09-30T03:07:43;12.03;;;5.00;;
8556;SDS011;4316;53.840;10.762;2022-09-30T03:10:13;5.00;;;4.50;;
8556;SDS011;4316;53.840;10.762;2022-09-30T03:15:45;8.40;;;4.80;;
8556;SDS011;4316;53.840;10.762;2022-09-30T03:26:51;6.00;;;5.00;;
8556;SDS011;4316;53.840;10.762;2022-09-30T03:34:37;6.50;;;5.73;;
8556;SDS011;4316;53.840;10.762;2022-09-30T03:40:13;5.90;;;5.27;;
8556;SDS011;4316;53.840;10.762;2022-09-30T03:45:45;5.57;;;5.07;;
8556;SDS011;4316;53.840;10.762;2022-09-30T03:48:35;5.57;;;4.93;;
8556;SDS011;4316;53.840;10.762;2022-09-30T03:51:04;5.67;;;5.17;;
8556;SDS011;4316;53.840;10.762;2022-09-30T03:53:36;5.33;;;4.83;;
8556;SDS011;4316;53.840;10.762;2022-09-30T03:56:05;5.07;;;4.57;;
8556;SDS011;4316;53.840;10.762;2022-09-30T03:58:31;5.97;;;4.40;;
8556;SDS011;4316;53.840;10.762;2022-09-30T04:00:59;5.47;;;4.40;;
8556;SDS011;4316;53.840;10.762;2022-09-30T04:03:25;5.87;;;5.27;;
8556;SDS011;4316;53.840;10.762;2022-09-30T04:05:52;5.83;;;5.07;;
8556;SDS011;4316;53.840;10.762;2022-09-30T04:08:18;6.13;;;5.10;;
8556;SDS011;4316;53.840;10.762;2022-09-30T04:10:44;5.70;;;5.20;;
8556;SDS011;4316;53.840;10.762;2022-09-30T04:13:10;4.97;;;4.53;;
8556;SDS011;4316;53.840;10.762;2022-09-30T04:15:36;5.30;;;4.60;;
8556;SDS011;4316;53.840;10.762;2022-09-30T04:18:03;4.97;;;4.47;;
8556;SDS011;4316;53.840;10.762;2022-09-30T04:20:29;6.73;;;5.53;;
8556;SDS011;4316;53.840;10.762;2022-09-30T04:22:57;7.63;;;5.53;;
8556;SDS011;4316;53.840;10.762;2022-09-30T04:25:24;5.93;;;5.17;;
8556;SDS011;4316;53.840;10.762;2022-09-30T04:27:51;7.50;;;5.07;;
8556;SDS011;4316;53.840;10.762;2022-09-30T04:30:18;6.17;;;5.63;;
8556;SDS011;4316;53.840;10.762;2022-09-30T04:32:43;6.20;;;5.60;;
8556;SDS011;4316;53.840;10.762;2022-09-30T04:35:10;5.87;;;5.33;;
8556;SDS011;4316;53.840;10.762;2022-09-30T04:37:41;6.50;;;5.90;;
8556;SDS011;4316;53.840;10.762;2022-09-30T04:40:11;7.27;;;6.10;;
8556;SDS011;4316;53.840;10.762;2022-09-30T04:42:38;6.70;;;6.10;;
8556;SDS011;4316;53.840;10.762;2022-09-30T04:45:07;5.67;;;5.13;;
8556;SDS011;4316;53.840;10.762;2022-09-30T04:47:37;6.70;;;4.87;;
8556;SDS011;4316;53.840;10.762;2022-09-30T04:50:06;6.90;;;5.30;;
8556;SDS011;4316;53.840;10.762;2022-09-30T04:52:33;5.53;;;5.10;;
8556;SDS011;4316;53.840;10.762;2022-09-30T04:54:58;5.17;;;4.57;;
8556;SDS011;4316;53.840;10.762;2022-09-30T04:57:24;10.27;;;4.93;;
8556;SDS011;4316;53.840;10.762;2022-09-30T04:59:51;5.83;;;5.33;;
8556;SDS011;4316;53.840;10.762;2022-09-30T05:02:18;7.13;;;6.40;;
8556;SDS011;4316;53.840;10.762;2022-09-30T05:04:44;7.13;;;5.60;;
8556;SDS011;4316;53.840;10.762;2022-09-30T05:07:10;9.33;;;6.30;;
8556;SDS011;4316;53.840;10.762;2022-09-30T05:09:36;7.30;;;5.83;;
8556;SDS011;4316;53.840;10.762;2022-09-30T05:12:02;9.20;;;6.33;;
8556;SDS011;4316;53.840;10.762;2022-09-30T05:14:28;7.43;;;6.73;;
8556;SDS011;4316;53.840;10.762;2022-09-30T05:16:54;7.93;;;6.83;;
8556;SDS011;4316;53.840;10.762;2022-09-30T05:19:23;7.43;;;6.73;;
8556;SDS011;4316;53.840;10.762;2022-09-30T05:21:49;6.50;;;5.90;;
8556;SDS011;4316;53.840;10.762;2022-09-30T05:24:16;7.17;;;6.57;;
8556;SDS011;4316;53.840;10.762;2022-09-30T05:26:42;6.63;;;6.13;;
8556;SDS011;4316;53.840;10.762;2022-09-30T05:29:09;6.93;;;6.07;;
8556;SDS011;4316;53.840;10.762;2022-09-30T05:31:35;7.80;;;6.00;;
8556;SDS011;4316;53.840;10.762;2022-09-30T05:34:00;7.13;;;6.43;;
8556;SDS011;4316;53.840;10.762;2022-09-30T05:36:26;7.53;;;6.37;;
8556;SDS011;4316;53.840;10.762;2022-09-30T05:38:52;6.80;;;6.20;;
8556;SDS011;4316;53.840;10.762;2022-09-30T05:41:18;6.97;;;6.23;;
8556;SDS011;4316;53.840;10.762;2022-09-30T05:43:45;8.97;;;7.43;;
8556;SDS011;4316;53.840;10.762;2022-09-30T05:46:12;7.53;;;6.60;;
8556;SDS011;4316;53.840;10.762;2022-09-30T05:48:38;7.57;;;5.93;;
8556;SDS011;4316;53.840;10.762;2022-09-30T05:51:04;7.47;;;6.57;;
8556;SDS011;4316;53.840;10.762;2022-09-30T05:53:30;7.63;;;6.17;;
8556;SDS011;4316;53.840;10.762;2022-09-30T05:55:57;7.43;;;6.63;;
8556;SDS011;4316;53.840;10.762;2022-09-30T05:58:22;7.63;;;6.60;;
8556;SDS011;4316;53.840;10.762;2022-09-30T06:00:49;7.00;;;6.30;;
8556;SDS011;4316;53.840;10.762;2022-09-30T06:03:15;8.83;;;6.83;;
8556;SDS011;4316;53.840;10.762;2022-09-30T06:05:42;7.93;;;7.07;;
8556;SDS011;4316;53.840;10.762;2022-09-30T06:08:09;6.20;;;5.60;;
8556;SDS011;4316;53.840;10.762;2022-09-30T06:10:39;6.40;;;5.90;;
8556;SDS011;4316;53.840;10.762;2022-09-30T06:13:06;7.27;;;6.47;;
8556;SDS011;4316;53.840;10.762;2022-09-30T06:15:32;10.80;;;7.27;;
8556;SDS011;4316;53.840;10.762;2022-09-30T06:17:59;5.97;;;5.37;;
8556;SDS011;4316;53.840;10.762;2022-09-30T06:20:24;8.47;;;7.60;;
8556;SDS011;4316;53.840;10.762;2022-09-30T06:22:50;8.10;;;7.30;;
8556;SDS011;4316;53.840;10.762;2022-09-30T06:25:16;7.47;;;6.77;;
8556;SDS011;4316;53.840;10.762;2022-09-30T06:27:45;9.83;;;6.50;;
8556;SDS011;4316;53.840;10.762;2022-09-30T06:30:11;6.67;;;6.07;;
8556;SDS011;4316;53.840;10.762;2022-09-30T06:32:38;7.50;;;6.63;;
8556;SDS011;4316;53.840;10.762;2022-09-30T06:35:04;7.53;;;6.73;;
8556;SDS011;4316;53.840;10.762;2022-09-30T06:37:30;7.73;;;6.80;;
8556;SDS011;4316;53.840;10.762;2022-09-30T06:39:56;8.03;;;7.23;;
8556;SDS011;4316;53.840;10.762;2022-09-30T06:42:22;11.00;;;7.67;;
8556;SDS011;4316;53.840;10.762;2022-09-30T06:44:49;8.63;;;6.97;;
8556;SDS011;4316;53.840;10.762;2022-09-30T06:47:15;7.77;;;6.97;;
8556;SDS011;4316;53.840;10.762;2022-09-30T06:49:41;13.83;;;7.73;;
8556;SDS011;4316;53.840;10.762;2022-09-30T06:52:08;7.87;;;7.00;;
8556;SDS011;4316;53.840;10.762;2022-09-30T06:54:37;8.97;;;7.53;;
8556;SDS011;4316;53.840;10.762;2022-09-30T06:57:03;9.67;;;7.63;;
8556;SDS011;4316;53.840;10.762;2022-09-30T06:59:29;7.70;;;6.47;;
8556;SDS011;4316;53.840;10.762;2022-09-30T07:01:55;7.27;;;6.57;;
8556;SDS011;4316;53.840;10.762;2022-09-30T07:04:22;7.80;;;6.63;;
8556;SDS011;4316;53.840;10.762;2022-09-30T07:06:49;6.87;;;6.27;;
8556;SDS011;4316;53.840;10.762;2022-09-30T07:09:15;7.67;;;6.87;;
8556;SDS011;4316;53.840;10.762;2022-09-30T07:11:41;8.23;;;6.87;;
8556;SDS011;4316;53.840;10.762;2022-09-30T07:14:08;7.97;;;5.87;;
8556;SDS011;4316;53.840;10.762;2022-09-30T07:16:34;7.77;;;6.40;;
8556;SDS011;4316;53.840;10.762;2022-09-30T07:19:01;6.37;;;5.77;;
8556;SDS011;4316;53.840;10.762;2022-09-30T07:21:27;7.70;;;5.87;;
8556;SDS011;4316;53.840;10.762;2022-09-30T07:23:55;5.93;;;5.43;;
8556;SDS011;4316;53.840;10.762;2022-09-30T07:26:23;7.80;;;5.63;;
8556;SDS011;4316;53.840;10.762;2022-09-30T07:28:49;6.27;;;5.70;;
8556;SDS011;4316;53.840;10.762;2022-09-30T07:31:20;10.70;;;5.73;;
8556;SDS011;4316;53.840;10.762;2022-09-30T07:33:47;10.00;;;5.43;;
8556;SDS011;4316;53.840;10.762;2022-09-30T07:36:17;6.67;;;5.50;;
8556;SDS011;4316;53.840;10.762;2022-09-30T07:38:48;8.40;;;5.57;;
8556;SDS011;4316;53.840;10.762;2022-09-30T07:41:17;7.20;;;5.57;;
8556;SDS011;4316;53.840;10.762;2022-09-30T07:43:48;6.07;;;5.40;;
8556;SDS011;4316;53.840;10.762;2022-09-30T07:46:16;5.47;;;4.97;;
8556;SDS011;4316;53.840;10.762;2022-09-30T07:48:45;10.27;;;5.60;;
8556;SDS011;4316;53.840;10.762;2022-09-30T07:51:14;6.37;;;5.47;;
8556;SDS011;4316;53.840;10.762;2022-09-30T07:53:47;6.17;;;4.77;;
8556;SDS011;4316;53.840;10.762;2022-09-30T07:56:14;9.47;;;4.97;;
8556;SDS011;4316;53.840;10.762;2022-09-30T07:58:41;5.73;;;4.53;;
8556;SDS011;4316;53.840;10.762;2022-09-30T08:01:07;5.00;;;4.60;;
8556;SDS011;4316;53.840;10.762;2022-09-30T08:03:35;9.57;;;4.80;;
8556;SDS011;4316;53.840;10.762;2022-09-30T08:06:09;5.40;;;4.63;;
8556;SDS011;4316;53.840;10.762;2022-09-30T08:08:36;7.97;;;4.90;;
8556;SDS011;4316;53.840;10.762;2022-09-30T08:11:03;7.23;;;4.70;;
8556;SDS011;4316;53.840;10.762;2022-09-30T08:13:30;5.87;;;4.30;;
8556;SDS011;4316;53.840;10.762;2022-09-30T08:15:56;8.33;;;3.90;;
8556;SDS011;4316;53.840;10.762;2022-09-30T08:18:22;5.30;;;4.57;;
8556;SDS011;4316;53.840;10.762;2022-09-30T08:20:48;4.10;;;3.37;;
8556;SDS011;4316;53.840;10.762;2022-09-30T08:23:14;12.00;;;4.07;;
8556;SDS011;4316;53.840;10.762;2022-09-30T08:25:39;6.07;;;4.00;;
8556;SDS011;4316;53.840;10.762;2022-09-30T08:28:05;6.13;;;4.07;;
8556;SDS011;4316;53.840;10.762;2022-09-30T08:30:33;4.20;;;3.80;;
8556;SDS011;4316;53.840;10.762;2022-09-30T08:32:59;10.53;;;4.10;;
8556;SDS011;4316;53.840;10.762;2022-09-30T08:35:25;3.87;;;3.40;;
8556;SDS011;4316;53.840;10.762;2022-09-30T08:37:51;4.07;;;3.47;;
8556;SDS011;4316;53.840;10.762;2022-09-30T08:40:20;5.33;;;3.17;;
8556;SDS011;4316;53.840;10.762;2022-09-30T08:51:08;5.70;;;3.03;;
8556;SDS011;4316;53.840;10.762;2022-09-30T08:53:51;7.80;;;3.10;;
8556;SDS011;4316;53.840;10.762;2022-09-30T08:56:23;3.13;;;2.83;;
8556;SDS011;4316;53.840;10.762;2022-09-30T08:58:55;4.47;;;3.23;;
8556;SDS011;4316;53.840;10.762;2022-09-30T09:01:45;5.20;;;2.97;;
8556;SDS011;4316;53.840;10.762;2022-09-30T09:04:13;3.57;;;2.90;;
8556;SDS011;4316;53.840;10.762;2022-09-30T09:06:47;3.17;;;2.90;;
8556;SDS011;4316;53.840;10.762;2022-09-30T09:09:34;4.27;;;2.70;;
8556;SDS011;4316;53.840;10.762;2022-09-30T09:20:53;3.67;;;3.37;;
8556;SDS011;4316;53.840;10.762;2022-09-30T09:23:21;3.33;;;3.00;;
8556;SDS011;4316;53.840;10.762;2022-09-30T09:25:47;3.30;;;3.00;;
8556;SDS011;4316;53.840;10.762;2022-09-30T09:31:14;7.97;;;3.10;;
8556;SDS011;4316;53.840;10.762;2022-09-30T09:33:42;3.37;;;2.80;;
8556;SDS011;4316;53.840;10.762;2022-09-30T09:47:20;2.97;;;2.70;;
8556;SDS011;4316;53.840;10.762;2022-09-30T09:49:54;2.95;;;2.60;;
8556;SDS011;4316;53.840;10.762;2022-09-30T09:55:07;2.92;;;2.35;;
8556;SDS011;4316;53.840;10.762;2022-09-30T09:57:35;7.68;;;2.60;;
8556;SDS011;4316;53.840;10.762;2022-09-30T10:05:39;3.78;;;3.00;;
8556;SDS011;4316;53.840;10.762;2022-09-30T10:08:16;3.97;;;3.63;;
8556;SDS011;4316;53.840;10.762;2022-09-30T10:13:24;7.88;;;2.83;;
8556;SDS011;4316;53.840;10.762;2022-09-30T10:15:52;2.40;;;2.20;;
8556;SDS011;4316;53.840;10.762;2022-09-30T10:20:57;2.47;;;2.10;;
8556;SDS011;4316;53.840;10.762;2022-09-30T10:26:09;1.90;;;1.80;;
8556;SDS011;4316;53.840;10.762;2022-09-30T10:28:51;3.40;;;2.63;;
8556;SDS011;4316;53.840;10.762;2022-09-30T10:34:06;2.25;;;1.60;;
8556;SDS011;4316;53.840;10.762;2022-09-30T10:36:33;2.15;;;1.80;;
8556;SDS011;4316;53.840;10.762;2022-09-30T10:44:28;2.20;;;2.00;;
8556;SDS011;4316;53.840;10.762;2022-09-30T10:47:00;2.28;;;1.85;;
8556;SDS011;4316;53.840;10.762;2022-09-30T10:52:00;2.27;;;2.10;;
8556;SDS011;4316;53.840;10.762;2022-09-30T10:54:32;7.23;;;2.27;;
8556;SDS011;4316;53.840;10.762;2022-09-30T10:57:05;2.07;;;1.83;;
8556;SDS011;4316;53.840;10.762;2022-09-30T10:59:38;2.50;;;2.30;;
8556;SDS011;4316;53.840;10.762;2022-09-30T11:04:43;2.40;;;2.30;;
8556;SDS011;4316;53.840;10.762;2022-09-30T11:10:32;3.73;;;2.47;;
8556;SDS011;4316;53.840;10.762;2022-09-30T11:19:15;5.43;;;1.90;;
8556;SDS011;4316;53.840;10.762;2022-09-30T11:38:08;3.08;;;1.63;;
8556;SDS011;4316;53.840;10.762;2022-09-30T11:40:46;1.87;;;1.40;;
8556;SDS011;4316;53.840;10.762;2022-09-30T11:43:36;1.00;;;1.00;;
8556;SDS011;4316;53.840;10.762;2022-09-30T11:49:08;1.50;;;1.40;;
8556;SDS011;4316;53.840;10.762;2022-09-30T11:59:58;1.97;;;1.20;;
8556;SDS011;4316;53.840;10.762;2022-09-30T12:02:37;4.72;;;1.30;;
8556;SDS011;4316;53.840;10.762;2022-09-30T12:07:45;1.65;;;1.45;;
8556;SDS011;4316;53.840;10.762;2022-09-30T12:10:36;1.40;;;1.30;;
8556;SDS011;4316;53.840;10.762;2022-09-30T12:13:09;3.10;;;1.20;;
8556;SDS011;4316;53.840;10.762;2022-09-30T12:15:39;4.73;;;2.80;;
8556;SDS011;4316;53.840;10.762;2022-09-30T12:18:14;2.55;;;1.45;;
8556;SDS011;4316;53.840;10.762;2022-09-30T12:20:52;1.00;;;1.00;;
8556;SDS011;4316;53.840;10.762;2022-09-30T12:23:26;4.03;;;0.93;;
8556;SDS011;4316;53.840;10.762;2022-09-30T12:25:59;1.55;;;1.05;;
8556;SDS011;4316;53.840;10.762;2022-09-30T12:28:28;1.05;;;1.00;;
8556;SDS011;4316;53.840;10.762;2022-09-30T12:50:13;2.85;;;1.00;;
8556;SDS011;4316;53.840;10.762;2022-09-30T12:52:42;7.32;;;1.10;;
8556;SDS011;4316;53.840;10.762;2022-09-30T12:57:49;1.47;;;1.10;;
8556;SDS011;4316;53.840;10.762;2022-09-30T13:00:24;2.58;;;1.20;;
8556;SDS011;4316;53.840;10.762;2022-09-30T13:10:29;3.47;;;1.67;;
8556;SDS011;4316;53.840;10.762;2022-09-30T13:13:14;3.70;;;1.50;;
8556;SDS011;4316;53.840;10.762;2022-09-30T13:15:47;1.48;;;1.38;;
8556;SDS011;4316;53.840;10.762;2022-09-30T13:23:40;5.10;;;3.05;;
8556;SDS011;4316;53.840;10.762;2022-09-30T13:26:34;2.80;;;2.47;;
8556;SDS011;4316;53.840;10.762;2022-09-30T13:31:31;1.40;;;1.10;;
8556;SDS011;4316;53.840;10.762;2022-09-30T13:34:20;1.40;;;1.30;;
8556;SDS011;4316;53.840;10.762;2022-09-30T13:36:58;2.50;;;1.90;;
8556;SDS011;4316;53.840;10.762;2022-09-30T13:47:39;1.63;;;1.52;;
8556;SDS011;4316;53.840;10.762;2022-09-30T13:52:44;1.08;;;1.05;;
8556;SDS011;4316;53.840;10.762;2022-09-30T13:55:18;1.23;;;1.10;;
8556;SDS011;4316;53.840;10.762;2022-09-30T13:57:51;1.02;;;1.02;;
8556;SDS011;4316;53.840;10.762;2022-09-30T14:00:19;1.63;;;1.55;;
8556;SDS011;4316;53.840;10.762;2022-09-30T14:05:31;5.13;;;2.80;;
8556;SDS011;4316;53.840;10.762;2022-09-30T14:08:33;1.17;;;1.17;;
8556;SDS011;4316;53.840;10.762;2022-09-30T14:19:19;1.25;;;1.10;;
8556;SDS011;4316;53.840;10.762;2022-09-30T14:22:02;0.90;;;0.90;;
8556;SDS011;4316;53.840;10.762;2022-09-30T14:24:32;1.10;;;1.00;;
8556;SDS011;4316;53.840;10.762;2022-09-30T14:30:22;4.22;;;1.20;;
8556;SDS011;4316;53.840;10.762;2022-09-30T14:35:33;1.30;;;1.20;;
8556;SDS011;4316;53.840;10.762;2022-09-30T14:38:06;2.13;;;1.13;;
8556;SDS011;4316;53.840;10.762;2022-09-30T14:40:38;1.20;;;1.10;;
8556;SDS011;4316;53.840;10.762;2022-09-30T14:43:13;1.20;;;1.20;;
8556;SDS011;4316;53.840;10.762;2022-09-30T14:45:43;3.45;;;1.38;;
8556;SDS011;4316;53.840;10.762;2022-09-30T14:48:18;2.78;;;1.10;;
8556;SDS011;4316;53.840;10.762;2022-09-30T14:53:28;2.92;;;1.25;;
8556;SDS011;4316;53.840;10.762;2022-09-30T14:55:57;4.22;;;1.25;;
8556;SDS011;4316;53.840;10.762;2022-09-30T14:58:28;2.60;;;1.10;;
8556;SDS011;4316;53.840;10.762;2022-09-30T15:01:11;2.58;;;1.10;;
8556;SDS011;4316;53.840;10.762;2022-09-30T15:03:42;0.95;;;0.95;;
8556;SDS011;4316;53.840;10.762;2022-09-30T15:06:24;1.55;;;1.45;;
8556;SDS011;4316;53.840;10.762;2022-09-30T15:09:03;1.00;;;1.00;;
8556;SDS011;4316;53.840;10.762;2022-09-30T15:11:40;1.10;;;1.10;;
8556;SDS011;4316;53.840;10.762;2022-09-30T15:14:08;4.13;;;1.00;;
8556;SDS011;4316;53.840;10.762;2022-09-30T15:16:42;2.73;;;1.40;;
8556;SDS011;4316;53.840;10.762;2022-09-30T15:19:20;1.73;;;1.17;;
8556;SDS011;4316;53.840;10.762;2022-09-30T15:21:47;1.30;;;1.20;;
8556;SDS011;4316;53.840;10.762;2022-09-30T15:24:16;1.30;;;1.20;;
8556;SDS011;4316;53.840;10.762;2022-09-30T15:26:44;1.50;;;1.20;;
8556;SDS011;4316;53.840;10.762;2022-09-30T15:29:14;1.73;;;1.20;;
8556;SDS011;4316;53.840;10.762;2022-09-30T15:34:42;3.27;;;1.13;;
8556;SDS011;4316;53.840;10.762;2022-09-30T15:37:18;1.23;;;1.00;;
8556;SDS011;4316;53.840;10.762;2022-09-30T15:39:48;1.50;;;1.33;;
8556;SDS011;4316;53.840;10.762;2022-09-30T15:45:47;3.10;;;2.80;;
8556;SDS011;4316;53.840;10.762;2022-09-30T15:48:06;22.63;;;15.13;;
8556;SDS011;4316;53.840;10.762;2022-09-30T15:50:53;2.55;;;2.38;;
8556;SDS011;4316;53.840;10.762;2022-09-30T15:53:31;2.47;;;1.53;;
8556;SDS011;4316;53.840;10.762;2022-09-30T15:56:16;2.10;;;1.40;;
8556;SDS011;4316;53.840;10.762;2022-09-30T15:58:56;1.30;;;1.20;;
8556;SDS011;4316;53.840;10.762;2022-09-30T16:09:20;2.13;;;1.40;;
8556;SDS011;4316;53.840;10.762;2022-09-30T16:20:21;2.13;;;1.80;;
8556;SDS011;4316;53.840;10.762;2022-09-30T16:22:50;2.00;;;1.80;;
8556;SDS011;4316;53.840;10.762;2022-09-30T16:27:45;8.57;;;5.97;;
8556;SDS011;4316;53.840;10.762;2022-09-30T16:30:14;12.43;;;7.40;;
8556;SDS011;4316;53.840;10.762;2022-09-30T16:32:45;11.23;;;5.50;;
8556;SDS011;4316;53.840;10.762;2022-09-30T16:35:19;13.97;;;3.90;;
8556;SDS011;4316;53.840;10.762;2022-09-30T16:37:47;3.20;;;2.72;;
8556;SDS011;4316;53.840;10.762;2022-09-30T16:40:15;2.97;;;2.47;;
8556;SDS011;4316;53.840;10.762;2022-09-30T16:42:41;4.75;;;2.00;;
8556;SDS011;4316;53.840;10.762;2022-09-30T16:45:09;2.47;;;2.27;;
8556;SDS011;4316;53.840;10.762;2022-09-30T16:47:41;6.43;;;1.90;;
8556;SDS011;4316;53.840;10.762;2022-09-30T16:52:41;3.80;;;1.80;;
8556;SDS011;4316;53.840;10.762;2022-09-30T16:55:07;3.30;;;1.90;;
8556;SDS011;4316;53.840;10.762;2022-09-30T16:57:33;2.33;;;2.13;;
8556;SDS011;4316;53.840;10.762;2022-09-30T16:59:59;3.63;;;2.70;;
8556;SDS011;4316;53.840;10.762;2022-09-30T17:02:24;4.15;;;2.30;;
8556;SDS011;4316;53.840;10.762;2022-09-30T17:04:51;1.97;;;1.77;;
8556;SDS011;4316;53.840;10.762;2022-09-30T17:07:17;7.43;;;2.10;;
8556;SDS011;4316;53.840;10.762;2022-09-30T17:09:43;1.67;;;1.57;;
8556;SDS011;4316;53.840;10.762;2022-09-30T17:12:09;1.90;;;1.80;;
8556;SDS011;4316;53.840;10.762;2022-09-30T17:14:36;3.23;;;1.80;;
8556;SDS011;4316;53.840;10.762;2022-09-30T17:17:03;3.03;;;2.03;;
8556;SDS011;4316;53.840;10.762;2022-09-30T17:19:28;5.93;;;5.07;;
8556;SDS011;4316;53.840;10.762;2022-09-30T17:21:56;6.93;;;6.10;;
8556;SDS011;4316;53.840;10.762;2022-09-30T17:24:22;6.67;;;5.80;;
8556;SDS011;4316;53.840;10.762;2022-09-30T17:26:48;12.17;;;8.50;;
8556;SDS011;4316;53.840;10.762;2022-09-30T17:29:14;5.47;;;4.37;;
8556;SDS011;4316;53.840;10.762;2022-09-30T17:31:40;3.40;;;2.93;;
8556;SDS011;4316;53.840;10.762;2022-09-30T17:34:06;4.80;;;3.13;;
8556;SDS011;4316;53.840;10.762;2022-09-30T17:36:33;2.53;;;1.97;;
8556;SDS011;4316;53.840;10.762;2022-09-30T17:39:00;2.37;;;2.10;;
8556;SDS011;4316;53.840;10.762;2022-09-30T17:41:27;2.00;;;1.67;;
8556;SDS011;4316;53.840;10.762;2022-09-30T17:44:12;3.90;;;2.53;;
8556;SDS011;4316;53.840;10.762;2022-09-30T17:46:39;4.93;;;2.40;;
8556;SDS011;4316;53.840;10.762;2022-09-30T17:49:06;2.60;;;2.20;;
8556;SDS011;4316;53.840;10.762;2022-09-30T17:51:33;26.93;;;17.67;;
8556;SDS011;4316;53.840;10.762;2022-09-30T17:54:00;14.27;;;5.53;;
8556;SDS011;4316;53.840;10.762;2022-09-30T17:56:26;8.47;;;3.87;;
8556;SDS011;4316;53.840;10.762;2022-09-30T17:58:53;3.30;;;2.70;;
8556;SDS011;4316;53.840;10.762;2022-09-30T18:01:19;3.10;;;2.80;;
8556;SDS011;4316;53.840;10.762;2022-09-30T18:03:46;4.57;;;2.70;;
8556;SDS011;4316;53.840;10.762;2022-09-30T18:06:12;2.60;;;2.40;;
8556;SDS011;4316;53.840;10.762;2022-09-30T18:08:40;3.10;;;1.90;;
8556;SDS011;4316;53.840;10.762;2022-09-30T18:11:06;3.17;;;1.73;;
8556;SDS011;4316;53.840;10.762;2022-09-30T18:13:32;3.67;;;1.80;;
8556;SDS011;4316;53.840;10.762;2022-09-30T18:15:58;1.93;;;1.83;;
8556;SDS011;4316;53.840;10.762;2022-09-30T18:18:30;5.17;;;1.70;;
8556;SDS011;4316;53.840;10.762;2022-09-30T18:20:57;3.03;;;2.00;;
8556;SDS011;4316;53.840;10.762;2022-09-30T18:23:23;2.70;;;1.77;;
8556;SDS011;4316;53.840;10.762;2022-09-30T18:25:51;1.97;;;1.70;;
8556;SDS011;4316;53.840;10.762;2022-09-30T18:28:22;2.10;;;1.90;;
8556;SDS011;4316;53.840;10.762;2022-09-30T18:30:48;3.83;;;1.60;;
8556;SDS011;4316;53.840;10.762;2022-09-30T18:33:17;1.83;;;1.70;;
8556;SDS011;4316;53.840;10.762;2022-09-30T18:35:45;4.57;;;2.20;;
8556;SDS011;4316;53.840;10.762;2022-09-30T18:38:12;2.63;;;2.00;;
8556;SDS011;4316;53.840;10.762;2022-09-30T18:40:41;3.47;;;2.50;;
8556;SDS011;4316;53.840;10.762;2022-09-30T18:43:08;6.73;;;4.60;;
8556;SDS011;4316;53.840;10.762;2022-09-30T18:45:37;5.13;;;4.60;;
8556;SDS011;4316;53.840;10.762;2022-09-30T18:48:04;4.57;;;4.17;;
8556;SDS011;4316;53.840;10.762;2022-09-30T18:50:33;4.90;;;4.07;;
8556;SDS011;4316;53.840;10.762;2022-09-30T18:53:00;3.70;;;3.40;;
8556;SDS011;4316;53.840;10.762;2022-09-30T18:55:32;3.23;;;2.93;;
8556;SDS011;4316;53.840;10.762;2022-09-30T18:58:00;5.87;;;2.80;;
8556;SDS011;4316;53.840;10.762;2022-09-30T19:00:25;2.77;;;2.57;;
8556;SDS011;4316;53.840;10.762;2022-09-30T19:02:53;2.50;;;2.30;;
8556;SDS011;4316;53.840;10.762;2022-09-30T19:05:19;2.60;;;2.03;;
8556;SDS011;4316;53.840;10.762;2022-09-30T19:07:45;2.57;;;2.37;;
8556;SDS011;4316;53.840;10.762;2022-09-30T19:10:11;4.37;;;2.33;;
8556;SDS011;4316;53.840;10.762;2022-09-30T19:12:37;2.73;;;2.40;;
8556;SDS011;4316;53.840;10.762;2022-09-30T19:15:04;5.80;;;2.80;;
8556;SDS011;4316;53.840;10.762;2022-09-30T19:17:32;3.33;;;2.67;;
8556;SDS011;4316;53.840;10.762;2022-09-30T19:19:58;3.20;;;2.90;;
8556;SDS011;4316;53.840;10.762;2022-09-30T19:22:27;3.47;;;2.80;;
8556;SDS011;4316;53.840;10.762;2022-09-30T19:24:53;5.87;;;3.00;;
8556;SDS011;4316;53.840;10.762;2022-09-30T19:27:19;8.17;;;2.83;;
8556;SDS011;4316;53.840;10.762;2022-09-30T19:29:51;6.30;;;2.70;;